createdAt,value
2019-01-09T00:01:50.908Z,71.81
2019-01-09T00:04:20.728Z,71.77
2019-01-09T00:06:50.426Z,71.47
2019-01-09T00:09:20.004Z,71.83
2019-01-09T00:11:49.709Z,72.01
2019-01-09T00:14:19.315Z,72.04
2019-01-09T00:16:48.929Z,72.03
2019-01-09T00:19:18.822Z,72.00
2019-01-09T00:21:48.510Z,71.91
2019-01-09T00:24:18.042Z,71.65
2019-01-09T00:26:47.673Z,71.46
2019-01-09T00:29:17.277Z,71.26
2019-01-09T00:31:46.949Z,71.39
2019-01-09T00:34:16.636Z,71.02
2019-01-09T00:36:46.156Z,71.07
2019-01-09T00:39:15.900Z,70.81
2019-01-09T00:41:45.682Z,70.86
2019-01-09T00:44:15.286Z,70.92
2019-01-09T00:46:44.778Z,70.98
2019-01-09T00:49:14.474Z,71.08
2019-01-09T00:51:43.994Z,70.98
2019-01-09T00:54:13.757Z,70.93
2019-01-09T00:56:43.757Z,70.69
2019-01-09T00:59:13.354Z,70.80
2019-01-09T01:01:48.363Z,70.88
2019-01-09T01:04:39.822Z,70.64
2019-01-09T01:07:58.454Z,70.69
2019-01-09T01:11:04.192Z,70.61
2019-01-09T01:14:20.443Z,70.55
2019-01-09T01:17:42.870Z,70.49
2019-01-09T01:20:36.618Z,70.82
2019-01-09T01:23:47.081Z,70.39
2019-01-09T01:26:59.227Z,70.62
2019-01-09T01:29:54.723Z,70.51
2019-01-09T01:33:20.277Z,70.32
2019-01-09T01:36:39.318Z,70.51
2019-01-09T01:39:37.456Z,70.23
2019-01-09T01:43:14.882Z,70.24
2019-01-09T01:46:24.358Z,70.53
2019-01-09T01:49:24.394Z,70.42
2019-01-09T01:52:52.646Z,70.25
2019-01-09T01:55:51.717Z,70.39
2019-01-09T01:58:39.814Z,70.04
2019-01-09T02:01:45.938Z,69.98
2019-01-09T02:04:40.976Z,70.29
2019-01-09T02:08:12.154Z,70.16
2019-01-09T02:11:28.366Z,69.79
2019-01-09T02:14:43.070Z,69.74
2019-01-09T02:17:53.891Z,69.59
2019-01-09T02:21:07.416Z,69.39
2019-01-09T02:24:10.066Z,69.28
2019-01-09T02:27:07.551Z,68.74
2019-01-09T02:30:31.590Z,69.08
2019-01-09T02:33:01.081Z,68.83
2019-01-09T02:35:30.582Z,68.76
2019-01-09T02:38:00.303Z,68.69
2019-01-09T02:40:29.783Z,69.01
2019-01-09T02:42:59.333Z,68.70
2019-01-09T02:45:29.125Z,68.59
2019-01-09T02:47:58.653Z,68.46
2019-01-09T02:50:28.184Z,68.59
2019-01-09T02:52:57.864Z,68.41
2019-01-09T02:55:27.326Z,68.62
2019-01-09T02:57:57.334Z,68.50
2019-01-09T03:00:27.025Z,68.52
2019-01-09T03:02:56.500Z,68.59
2019-01-09T03:05:26.025Z,68.53
2019-01-09T03:07:55.848Z,68.55
2019-01-09T03:10:25.329Z,68.73
2019-01-09T03:12:54.914Z,68.68
2019-01-09T03:15:24.681Z,68.62
2019-01-09T03:17:54.626Z,68.67
2019-01-09T03:20:24.175Z,68.96
2019-01-09T03:22:53.885Z,68.74
2019-01-09T03:25:23.424Z,68.71
2019-01-09T03:27:53.125Z,68.54
2019-01-09T03:30:22.895Z,68.69
2019-01-09T03:32:52.403Z,68.56
2019-01-09T03:35:21.975Z,68.47
2019-01-09T03:37:51.622Z,68.85
2019-01-09T03:40:21.112Z,68.96
2019-01-09T03:42:50.709Z,68.79
2019-01-09T03:45:20.482Z,68.77
2019-01-09T03:47:50.056Z,68.49
2019-01-09T03:50:19.590Z,68.64
2019-01-09T03:52:49.262Z,68.57
2019-01-09T03:55:18.806Z,68.38
2019-01-09T03:57:48.299Z,68.60
2019-01-09T04:00:17.961Z,68.44
2019-01-09T04:02:47.556Z,68.39
2019-01-09T04:05:17.195Z,68.41
2019-01-09T04:07:46.899Z,68.49
2019-01-09T04:10:16.545Z,68.44
2019-01-09T04:12:46.005Z,68.30
2019-01-09T04:15:16.068Z,68.20
2019-01-09T04:17:45.586Z,68.15
2019-01-09T04:20:15.220Z,67.82
2019-01-09T04:22:44.850Z,67.69
2019-01-09T04:25:18.227Z,67.81
2019-01-09T04:27:47.960Z,67.75
2019-01-09T04:30:17.521Z,67.65
2019-01-09T04:32:47.100Z,67.68
2019-01-09T04:35:16.759Z,67.78
2019-01-09T04:37:46.315Z,67.62
2019-01-09T04:40:15.879Z,67.46
2019-01-09T04:42:45.577Z,67.65
2019-01-09T04:45:15.167Z,67.35
2019-01-09T04:47:44.772Z,67.21
2019-01-09T04:50:14.428Z,67.47
2019-01-09T04:52:43.998Z,67.53
2019-01-09T04:55:13.563Z,67.33
2019-01-09T04:57:43.357Z,67.32
2019-01-09T05:00:13.002Z,67.27
2019-01-09T05:02:42.571Z,67.34
2019-01-09T05:05:12.391Z,67.36
2019-01-09T05:07:42.257Z,67.43
2019-01-09T05:10:11.824Z,67.29
2019-01-09T05:12:41.545Z,67.11
2019-01-09T05:15:11.266Z,67.29
2019-01-09T05:17:40.795Z,66.97
2019-01-09T05:20:11.017Z,67.18
2019-01-09T05:22:40.725Z,66.87
2019-01-09T05:25:10.410Z,67.22
2019-01-09T05:27:40.476Z,67.15
2019-01-09T05:30:10.319Z,67.07
2019-01-09T05:32:39.975Z,67.07
2019-01-09T05:35:09.755Z,66.98
2019-01-09T05:37:39.314Z,67.20
2019-01-09T05:40:09.174Z,67.16
2019-01-09T05:42:38.956Z,67.18
2019-01-09T05:45:08.812Z,67.18
2019-01-09T05:47:38.438Z,67.16
2019-01-09T05:50:08.534Z,67.20
2019-01-09T05:52:38.269Z,67.28
2019-01-09T05:55:08.103Z,67.35
2019-01-09T05:57:37.849Z,67.23
2019-01-09T06:00:08.550Z,67.31
2019-01-09T06:02:38.207Z,67.31
2019-01-09T06:05:08.093Z,67.25
2019-01-09T06:07:37.954Z,67.15
2019-01-09T06:10:08.472Z,67.09
2019-01-09T06:12:38.750Z,67.03
2019-01-09T06:15:09.246Z,67.04
2019-01-09T06:17:38.976Z,67.08
2019-01-09T06:20:09.995Z,66.96
2019-01-09T06:22:39.953Z,66.49
2019-01-09T06:25:09.566Z,66.57
2019-01-09T06:27:39.536Z,66.78
2019-01-09T06:30:10.018Z,66.64
2019-01-09T06:32:40.021Z,66.66
2019-01-09T06:35:09.882Z,66.92
2019-01-09T06:37:39.434Z,66.86
2019-01-09T06:40:09.590Z,66.86
2019-01-09T06:42:39.325Z,66.78
2019-01-09T06:45:09.053Z,66.93
2019-01-09T06:47:38.778Z,67.00
2019-01-09T06:50:12.563Z,67.03
2019-01-09T06:52:42.401Z,66.92
2019-01-09T06:55:12.081Z,66.72
2019-01-09T06:57:41.853Z,66.92
2019-01-09T07:00:12.115Z,66.65
2019-01-09T07:02:41.766Z,66.78
2019-01-09T07:05:11.480Z,66.66
2019-01-09T07:07:41.432Z,66.74
2019-01-09T07:10:11.646Z,66.72
2019-01-09T07:12:41.234Z,66.80
2019-01-09T07:15:12.574Z,66.33
2019-01-09T07:17:42.276Z,66.46
2019-01-09T07:20:11.753Z,66.43
2019-01-09T07:22:41.505Z,66.36
2019-01-09T07:25:11.128Z,66.41
2019-01-09T07:27:40.679Z,66.51
2019-01-09T07:30:10.928Z,66.59
2019-01-09T07:32:40.499Z,66.72
2019-01-09T07:35:10.355Z,66.78
2019-01-09T07:37:45.038Z,66.76
2019-01-09T07:40:11.631Z,66.71
2019-01-09T07:42:41.438Z,66.72
2019-01-09T07:45:11.225Z,66.50
2019-01-09T07:47:40.822Z,66.51
2019-01-09T07:50:10.940Z,66.65
2019-01-09T07:52:40.504Z,66.68
2019-01-09T07:55:10.234Z,66.79
2019-01-09T07:57:40.124Z,66.45
2019-01-09T08:00:11.481Z,66.46
2019-01-09T08:02:41.447Z,66.22
2019-01-09T08:05:11.198Z,66.26
2019-01-09T08:07:40.791Z,66.26
2019-01-09T08:10:11.319Z,66.23
2019-01-09T08:12:40.902Z,66.57
2019-01-09T08:15:10.868Z,66.67
2019-01-09T08:17:40.669Z,66.53
2019-01-09T08:20:10.733Z,66.53
2019-01-09T08:22:40.557Z,66.39
2019-01-09T08:25:10.591Z,66.80
2019-01-09T08:27:40.340Z,66.84
2019-01-09T08:30:10.947Z,66.81
2019-01-09T08:32:40.517Z,66.69
2019-01-09T08:35:10.334Z,66.68
2019-01-09T08:37:40.454Z,66.68
2019-01-09T08:40:10.623Z,66.91
2019-01-09T08:42:40.461Z,66.94
2019-01-09T08:45:10.486Z,67.02
2019-01-09T08:47:40.235Z,66.99
2019-01-09T08:50:10.489Z,67.03
2019-01-09T08:52:40.399Z,66.88
2019-01-09T08:55:10.304Z,67.11
2019-01-09T08:57:40.012Z,67.06
2019-01-09T09:00:12.026Z,66.97
2019-01-09T09:02:41.602Z,67.02
2019-01-09T09:05:11.302Z,67.00
2019-01-09T09:07:41.306Z,66.99
2019-01-09T09:10:12.604Z,67.14
2019-01-09T09:12:42.539Z,67.02
2019-01-09T09:15:13.816Z,67.12
2019-01-09T09:17:43.679Z,67.30
2019-01-09T09:20:14.060Z,67.17
2019-01-09T09:22:43.725Z,66.96
2019-01-09T09:25:13.377Z,67.13
2019-01-09T09:27:43.093Z,67.14
2019-01-09T09:30:13.518Z,66.99
2019-01-09T09:32:43.284Z,67.20
2019-01-09T09:35:12.913Z,67.14
2019-01-09T09:37:42.535Z,67.19
2019-01-09T09:40:15.127Z,67.02
2019-01-09T09:42:44.798Z,67.10
2019-01-09T09:45:14.441Z,66.92
2019-01-09T09:47:44.185Z,67.05
2019-01-09T09:50:14.912Z,66.99
2019-01-09T09:52:44.460Z,66.91
2019-01-09T09:55:14.574Z,66.73
2019-01-09T09:57:44.160Z,66.80
2019-01-09T10:00:17.864Z,66.96
2019-01-09T10:02:47.442Z,66.93
2019-01-09T10:05:17.083Z,66.86
2019-01-09T10:07:46.869Z,66.84
2019-01-09T10:10:16.683Z,66.54
2019-01-09T10:12:46.315Z,66.65
2019-01-09T10:15:16.270Z,66.55
2019-01-09T10:17:46.152Z,66.61
2019-01-09T10:20:16.419Z,66.56
2019-01-09T10:22:46.539Z,66.45
2019-01-09T10:25:16.252Z,66.58
2019-01-09T10:27:45.816Z,66.43
2019-01-09T10:30:17.398Z,66.51
2019-01-09T10:32:47.123Z,66.16
2019-01-09T10:35:16.897Z,66.12
2019-01-09T10:37:47.320Z,66.11
2019-01-09T10:40:18.462Z,65.73
2019-01-09T10:42:48.121Z,65.79
2019-01-09T10:45:19.903Z,65.88
2019-01-09T10:47:49.824Z,65.84
2019-01-09T10:50:19.727Z,65.67
2019-01-09T10:52:49.464Z,65.62
2019-01-09T10:55:19.314Z,65.71
2019-01-09T10:57:48.911Z,65.52
2019-01-09T11:00:23.644Z,65.38
2019-01-09T11:02:53.404Z,65.52
2019-01-09T11:05:23.208Z,65.20
2019-01-09T11:07:52.949Z,65.36
2019-01-09T11:10:22.817Z,65.29
2019-01-09T11:12:52.470Z,65.48
2019-01-09T11:15:22.212Z,65.16
2019-01-09T11:17:52.049Z,65.41
2019-01-09T11:20:22.383Z,65.35
2019-01-09T11:22:52.317Z,64.91
2019-01-09T11:25:27.339Z,65.14
2019-01-09T11:27:56.952Z,65.12
2019-01-09T11:30:26.576Z,65.07
2019-01-09T11:32:56.167Z,64.94
2019-01-09T11:35:26.460Z,64.84
2019-01-09T11:37:55.990Z,64.27
2019-01-09T11:40:25.466Z,64.83
2019-01-09T11:42:55.178Z,64.07
2019-01-09T11:45:24.724Z,64.31
2019-01-09T11:47:54.714Z,64.44
2019-01-09T11:50:24.473Z,63.97
2019-01-09T11:52:54.043Z,64.22
2019-01-09T11:55:23.533Z,63.83
2019-01-09T11:57:53.210Z,64.20
2019-01-09T12:00:25.035Z,64.17
2019-01-09T12:02:54.910Z,63.94
2019-01-09T12:05:24.417Z,63.83
2019-01-09T12:07:53.961Z,63.94
2019-01-09T12:10:29.857Z,63.97
2019-01-09T12:12:56.046Z,64.00
2019-01-09T12:15:25.833Z,64.01
2019-01-09T12:17:55.489Z,63.88
2019-01-09T12:20:25.250Z,64.06
2019-01-09T12:22:54.799Z,64.09
2019-01-09T12:25:24.591Z,64.09
2019-01-09T12:27:54.234Z,64.02
2019-01-09T12:30:26.115Z,63.95
2019-01-09T12:32:56.079Z,64.08
2019-01-09T12:35:25.789Z,63.83
2019-01-09T12:37:55.400Z,63.77
2019-01-09T12:40:26.383Z,63.92
2019-01-09T12:42:55.997Z,64.26
2019-01-09T12:45:25.678Z,63.98
2019-01-09T12:47:55.437Z,64.07
2019-01-09T12:50:26.528Z,63.75
2019-01-09T12:52:56.166Z,64.20
2019-01-09T12:55:25.792Z,63.79
2019-01-09T12:57:55.454Z,64.00
2019-01-09T13:00:30.251Z,64.13
2019-01-09T13:02:59.911Z,64.05
2019-01-09T13:05:29.450Z,64.18
2019-01-09T13:07:59.068Z,64.36
2019-01-09T13:10:28.659Z,64.18
2019-01-09T13:12:58.198Z,64.18
2019-01-09T13:15:27.792Z,64.26
2019-01-09T13:17:57.453Z,64.41
2019-01-09T13:20:26.994Z,64.57
2019-01-09T13:22:56.563Z,64.49
2019-01-09T13:25:26.115Z,64.36
2019-01-09T13:27:55.692Z,64.42
2019-01-09T13:30:25.350Z,64.41
2019-01-09T13:32:55.002Z,64.50
2019-01-09T13:35:24.664Z,64.20
2019-01-09T13:37:54.363Z,64.35
2019-01-09T13:40:24.204Z,64.67
2019-01-09T13:42:53.748Z,64.56
2019-01-09T13:45:24.879Z,64.45
2019-01-09T13:47:55.009Z,64.65
2019-01-09T13:50:24.918Z,64.78
2019-01-09T13:52:54.721Z,64.55
2019-01-09T13:55:24.401Z,64.51
2019-01-09T13:57:54.152Z,64.49
2019-01-09T14:00:24.061Z,64.68
2019-01-09T14:02:53.772Z,64.86
2019-01-09T14:05:23.610Z,64.93
2019-01-09T14:07:53.457Z,64.86
2019-01-09T14:10:25.762Z,65.08
2019-01-09T14:12:55.454Z,65.11
2019-01-09T14:15:25.100Z,65.17
2019-01-09T14:17:54.932Z,64.93
2019-01-09T14:20:24.693Z,64.87
2019-01-09T14:22:54.575Z,64.86
2019-01-09T14:25:24.316Z,64.94
2019-01-09T14:27:54.229Z,64.94
2019-01-09T14:30:26.373Z,64.84
2019-01-09T14:32:56.010Z,64.96
2019-01-09T14:35:25.592Z,64.91
2019-01-09T14:37:55.537Z,64.95
2019-01-09T14:40:25.224Z,64.93
2019-01-09T14:42:54.891Z,65.14
2019-01-09T14:45:24.788Z,65.10
2019-01-09T14:47:54.404Z,65.19
2019-01-09T14:50:25.439Z,65.27
2019-01-09T14:52:55.210Z,65.05
2019-01-09T14:55:24.825Z,65.08
2019-01-09T14:57:55.033Z,65.20
2019-01-09T15:00:26.529Z,65.46
2019-01-09T15:02:56.674Z,65.52
2019-01-09T15:05:26.415Z,65.70
2019-01-09T15:07:56.035Z,65.79
2019-01-09T15:10:28.325Z,65.90
2019-01-09T15:12:58.599Z,65.96
2019-01-09T15:15:28.237Z,65.96
2019-01-09T15:17:57.972Z,66.09
2019-01-09T15:20:27.780Z,66.24
2019-01-09T15:22:57.361Z,66.37
2019-01-09T15:25:27.084Z,66.43
2019-01-09T15:27:56.734Z,66.53
2019-01-09T15:30:28.723Z,66.48
2019-01-09T15:32:58.284Z,66.46
2019-01-09T15:35:28.054Z,66.54
2019-01-09T15:37:57.890Z,66.55
2019-01-09T15:40:32.107Z,66.67
2019-01-09T15:43:02.030Z,66.67
2019-01-09T15:45:31.713Z,66.67
2019-01-09T15:48:01.342Z,66.72
2019-01-09T15:50:31.403Z,66.58
2019-01-09T15:53:01.000Z,66.70
2019-01-09T15:55:30.660Z,66.89
2019-01-09T15:58:00.645Z,66.72
2019-01-09T16:00:36.024Z,66.88
2019-01-09T16:03:06.323Z,67.03
2019-01-09T16:05:36.039Z,67.14
2019-01-09T16:08:07.665Z,67.19
2019-01-09T16:10:37.423Z,67.40
2019-01-09T16:13:07.254Z,67.44
2019-01-09T16:15:37.263Z,67.36
2019-01-09T16:18:07.546Z,67.21
2019-01-09T16:20:37.168Z,67.28
2019-01-09T16:23:07.035Z,67.45
2019-01-09T16:25:36.777Z,67.52
2019-01-09T16:28:06.702Z,67.57
2019-01-09T16:31:26.295Z,67.70
2019-01-09T16:33:56.367Z,67.78
2019-01-09T16:36:26.529Z,67.83
2019-01-09T16:38:56.509Z,67.85
2019-01-09T16:41:26.299Z,67.85
2019-01-09T16:43:56.065Z,67.76
2019-01-09T16:46:26.035Z,67.82
2019-01-09T16:48:55.723Z,67.87
2019-01-09T16:51:25.460Z,67.83
2019-01-09T16:53:55.300Z,67.74
2019-01-09T16:56:24.906Z,67.84
2019-01-09T16:58:54.651Z,67.84
2019-01-09T17:01:24.555Z,68.05
2019-01-09T17:03:54.318Z,68.06
2019-01-09T17:06:24.111Z,68.18
2019-01-09T17:08:53.861Z,68.39
2019-01-09T17:11:23.525Z,68.29
2019-01-09T17:13:53.351Z,68.17
2019-01-09T17:16:23.063Z,68.07
2019-01-09T17:18:52.794Z,68.18
2019-01-09T17:21:22.917Z,68.11
2019-01-09T17:23:52.670Z,68.20
2019-01-09T17:26:22.499Z,68.26
2019-01-09T17:28:52.153Z,68.27
2019-01-09T17:31:21.934Z,68.35
2019-01-09T17:33:51.753Z,68.38
2019-01-09T17:36:21.369Z,68.37
2019-01-09T17:38:51.247Z,68.32
2019-01-09T17:41:20.919Z,68.45
2019-01-09T17:43:50.646Z,68.53
2019-01-09T17:46:20.396Z,68.35
2019-01-09T17:48:50.020Z,68.41
2019-01-09T17:51:19.722Z,68.41
2019-01-09T17:53:49.780Z,68.38
2019-01-09T17:56:19.660Z,68.44
2019-01-09T17:58:49.308Z,68.42
2019-01-09T18:01:19.099Z,68.33
2019-01-09T18:03:48.830Z,68.29
2019-01-09T18:06:18.410Z,68.29
2019-01-09T18:08:48.287Z,68.22
2019-01-09T18:11:18.066Z,68.16
2019-01-09T18:13:47.853Z,68.13
2019-01-09T18:16:18.172Z,67.92
2019-01-09T18:18:47.859Z,67.85
2019-01-09T18:21:17.840Z,67.98
2019-01-09T18:23:47.729Z,67.87
2019-01-09T18:26:17.355Z,67.84
2019-01-09T18:28:47.079Z,67.88
2019-01-09T18:31:53.448Z,67.85
2019-01-09T18:34:34.382Z,67.75
2019-01-09T18:37:17.563Z,67.96
2019-01-09T18:40:25.772Z,68.01
2019-01-09T18:43:42.007Z,67.97
2019-01-09T18:46:59.687Z,68.08
2019-01-09T18:49:56.722Z,68.20
2019-01-09T18:52:57.887Z,68.33
2019-01-09T18:55:27.820Z,68.34
2019-01-09T18:57:57.527Z,68.36
2019-01-09T19:00:27.319Z,68.54
2019-01-09T19:02:57.318Z,68.50
2019-01-09T19:05:27.220Z,68.49
2019-01-09T19:07:57.005Z,68.45
2019-01-09T19:10:27.347Z,68.36
2019-01-09T19:12:57.099Z,68.39
2019-01-09T19:15:26.943Z,68.35
2019-01-09T19:17:57.086Z,68.17
2019-01-09T19:20:26.851Z,68.44
2019-01-09T19:22:56.853Z,68.53
2019-01-09T19:25:27.226Z,68.78
2019-01-09T19:27:56.953Z,68.92
2019-01-09T19:30:30.287Z,69.02
2019-01-09T19:33:00.519Z,69.19
2019-01-09T19:35:30.316Z,69.19
2019-01-09T19:38:00.297Z,69.13
2019-01-09T19:40:29.951Z,69.15
2019-01-09T19:42:59.640Z,69.18
2019-01-09T19:45:29.474Z,69.25
2019-01-09T19:47:59.143Z,69.26
2019-01-09T19:50:28.874Z,69.20
2019-01-09T19:53:01.953Z,69.19
2019-01-09T19:55:33.534Z,69.26
2019-01-09T19:58:03.356Z,69.42
2019-01-09T20:00:33.545Z,69.43
2019-01-09T20:03:03.490Z,69.47
2019-01-09T20:05:33.425Z,69.45
2019-01-09T20:08:03.492Z,69.42
2019-01-09T20:10:33.303Z,69.47
2019-01-09T20:13:03.452Z,69.47
2019-01-09T20:15:33.495Z,69.49
2019-01-09T20:18:05.320Z,69.49
2019-01-09T20:20:36.407Z,69.52
2019-01-09T20:23:14.605Z,69.65
2019-01-09T20:25:44.583Z,69.66
2019-01-09T20:28:17.876Z,69.69
2019-01-09T20:30:47.867Z,69.80
2019-01-09T20:33:17.832Z,69.74
2019-01-09T20:35:47.989Z,69.70
2019-01-09T20:38:17.872Z,69.64
2019-01-09T20:40:47.545Z,69.77
2019-01-09T20:43:17.413Z,69.85
2019-01-09T20:45:47.146Z,69.77
2019-01-09T20:48:16.938Z,69.92
2019-01-09T20:50:47.651Z,70.08
2019-01-09T20:53:17.639Z,70.16
2019-01-09T20:55:47.500Z,70.18
2019-01-09T20:58:17.504Z,69.91
2019-01-09T21:00:47.527Z,69.97
2019-01-09T21:03:17.484Z,69.95
2019-01-09T21:05:49.645Z,69.78
2019-01-09T21:08:19.338Z,69.70
2019-01-09T21:10:49.039Z,69.48
2019-01-09T21:13:18.926Z,69.45
2019-01-09T21:15:48.721Z,69.47
2019-01-09T21:18:18.356Z,69.41
2019-01-09T21:20:48.515Z,69.40
2019-01-09T21:23:18.257Z,69.34
2019-01-09T21:25:48.150Z,69.30
2019-01-09T21:28:18.053Z,69.33
2019-01-09T21:30:47.871Z,69.24
2019-01-09T21:33:17.661Z,69.28
2019-01-09T21:35:47.467Z,69.33
2019-01-09T21:38:17.188Z,69.50
2019-01-09T21:40:46.897Z,69.46
2019-01-09T21:43:16.604Z,69.57
2019-01-09T21:45:46.303Z,69.60
2019-01-09T21:48:16.358Z,69.72
2019-01-09T21:50:46.171Z,69.86
2019-01-09T21:53:17.270Z,70.01
2019-01-09T21:55:46.767Z,70.09
2019-01-09T21:58:16.647Z,70.12
2019-01-09T22:00:46.442Z,70.14
2019-01-09T22:03:16.138Z,70.17
2019-01-09T22:05:46.128Z,70.11
2019-01-09T22:08:15.934Z,70.08
2019-01-09T22:10:45.672Z,70.04
2019-01-09T22:13:15.675Z,70.19
2019-01-09T22:15:45.660Z,70.24
2019-01-09T22:18:15.555Z,70.27
2019-01-09T22:20:45.420Z,70.16
2019-01-09T22:23:15.154Z,70.36
2019-01-09T22:25:44.956Z,70.35
2019-01-09T22:28:14.918Z,70.27
2019-01-09T22:30:44.681Z,70.30
2019-01-09T22:33:14.554Z,70.34
2019-01-09T22:35:44.643Z,70.31
2019-01-09T22:38:14.349Z,70.42
2019-01-09T22:40:44.008Z,70.41
2019-01-09T22:43:13.874Z,70.45
2019-01-09T22:45:43.648Z,70.58
2019-01-09T22:48:13.342Z,70.65
2019-01-09T22:50:43.235Z,70.71
2019-01-09T22:53:12.992Z,70.81
2019-01-09T22:55:42.665Z,70.91
2019-01-09T22:58:12.934Z,71.01
2019-01-09T23:01:06.298Z,71.02
2019-01-09T23:03:36.432Z,71.06
2019-01-09T23:06:08.134Z,71.07
2019-01-09T23:08:38.324Z,71.06
2019-01-09T23:11:08.473Z,71.09
2019-01-09T23:13:38.408Z,71.08
2019-01-09T23:16:08.677Z,71.17
2019-01-09T23:18:38.520Z,71.16
2019-01-09T23:21:08.477Z,71.16
2019-01-09T23:23:38.582Z,71.20
2019-01-09T23:26:08.367Z,71.21
2019-01-09T23:28:38.372Z,71.28
2019-01-09T23:31:08.547Z,71.32
2019-01-09T23:33:38.308Z,71.29
2019-01-09T23:36:08.414Z,71.31
2019-01-09T23:38:38.282Z,71.29
2019-01-09T23:41:08.419Z,71.27
2019-01-09T23:43:38.329Z,71.26
2019-01-09T23:46:08.478Z,71.29
2019-01-09T23:48:38.344Z,71.30
2019-01-09T23:51:08.128Z,71.32
2019-01-09T23:53:37.988Z,71.22
2019-01-09T23:56:07.873Z,71.28
2019-01-09T23:58:37.667Z,71.26
